sensor_id;sensor_type;location;lat;lon;timestamp;P1;durP1;ratioP1;P2;durP2;ratioP2
823;SDS011;373;49.342;8.146;2023-09-30T01:51:27;2.00;;;1.85;;
823;SDS011;373;49.342;8.146;2023-09-30T01:53:57;2.53;;;2.05;;
823;SDS011;373;49.342;8.146;2023-09-30T01:56:24;2.47;;;1.85;;
823;SDS011;373;49.342;8.146;2023-09-30T01:58:51;2.05;;;1.80;;
823;SDS011;373;49.342;8.146;2023-09-30T02:01:18;2.17;;;1.98;;
823;SDS011;373;49.342;8.146;2023-09-30T02:03:46;2.15;;;1.55;;
823;SDS011;373;49.342;8.146;2023-09-30T02:06:13;2.58;;;1.80;;
823;SDS011;373;49.342;8.146;2023-09-30T02:08:41;3.88;;;2.10;;
823;SDS011;373;49.342;8.146;2023-09-30T02:11:11;3.60;;;1.95;;
823;SDS011;373;49.342;8.146;2023-09-30T02:13:39;3.53;;;2.05;;
823;SDS011;373;49.342;8.146;2023-09-30T02:16:10;2.92;;;2.20;;
823;SDS011;373;49.342;8.146;2023-09-30T02:18:38;2.90;;;2.05;;
823;SDS011;373;49.342;8.146;2023-09-30T02:21:05;3.22;;;2.13;;
823;SDS011;373;49.342;8.146;2023-09-30T02:23:33;1.90;;;1.70;;
823;SDS011;373;49.342;8.146;2023-09-30T02:26:01;4.05;;;2.13;;
823;SDS011;373;49.342;8.146;2023-09-30T02:28:28;2.17;;;1.90;;
823;SDS011;373;49.342;8.146;2023-09-30T02:30:55;3.72;;;1.95;;
823;SDS011;373;49.342;8.146;2023-09-30T02:33:22;3.30;;;2.20;;
823;SDS011;373;49.342;8.146;2023-09-30T02:35:51;4.18;;;2.10;;
823;SDS011;373;49.342;8.146;2023-09-30T02:38:18;2.72;;;2.20;;
823;SDS011;373;49.342;8.146;2023-09-30T02:40:47;2.85;;;2.17;;
823;SDS011;373;49.342;8.146;2023-09-30T02:43:16;4.00;;;1.75;;
823;SDS011;373;49.342;8.146;2023-09-30T02:45:43;2.53;;;2.25;;
823;SDS011;373;49.342;8.146;2023-09-30T02:48:10;4.50;;;2.30;;
823;SDS011;373;49.342;8.146;2023-09-30T02:50:37;3.22;;;2.65;;
823;SDS011;373;49.342;8.146;2023-09-30T02:53:05;2.80;;;2.50;;
823;SDS011;373;49.342;8.146;2023-09-30T02:55:33;3.97;;;2.70;;
823;SDS011;373;49.342;8.146;2023-09-30T02:58:00;2.95;;;2.35;;
823;SDS011;373;49.342;8.146;2023-09-30T03:00:30;4.57;;;2.22;;
823;SDS011;373;49.342;8.146;2023-09-30T03:02:59;3.22;;;2.30;;
823;SDS011;373;49.342;8.146;2023-09-30T03:05:28;3.28;;;2.28;;
823;SDS011;373;49.342;8.146;2023-09-30T03:07:58;5.10;;;2.42;;
823;SDS011;373;49.342;8.146;2023-09-30T03:10:26;3.25;;;2.08;;
823;SDS011;373;49.342;8.146;2023-09-30T03:12:54;2.55;;;2.22;;
823;SDS011;373;49.342;8.146;2023-09-30T03:15:21;2.40;;;2.17;;
823;SDS011;373;49.342;8.146;2023-09-30T03:17:50;3.70;;;2.22;;
823;SDS011;373;49.342;8.146;2023-09-30T03:20:17;3.15;;;2.22;;
823;SDS011;373;49.342;8.146;2023-09-30T03:22:45;2.05;;;1.92;;
823;SDS011;373;49.342;8.146;2023-09-30T03:25:14;3.33;;;2.33;;
823;SDS011;373;49.342;8.146;2023-09-30T03:27:42;2.45;;;2.22;;
823;SDS011;373;49.342;8.146;2023-09-30T03:30:11;3.17;;;2.03;;
823;SDS011;373;49.342;8.146;2023-09-30T03:32:40;3.15;;;2.45;;
823;SDS011;373;49.342;8.146;2023-09-30T03:35:10;3.30;;;2.70;;
823;SDS011;373;49.342;8.146;2023-09-30T03:37:40;2.63;;;1.90;;
823;SDS011;373;49.342;8.146;2023-09-30T03:40:07;4.10;;;2.47;;
823;SDS011;373;49.342;8.146;2023-09-30T03:42:40;3.75;;;2.33;;
823;SDS011;373;49.342;8.146;2023-09-30T03:45:09;3.58;;;2.80;;
823;SDS011;373;49.342;8.146;2023-09-30T03:47:36;4.05;;;3.10;;
823;SDS011;373;49.342;8.146;2023-09-30T03:50:04;3.65;;;2.35;;
823;SDS011;373;49.342;8.146;2023-09-30T03:52:39;5.10;;;2.67;;
823;SDS011;373;49.342;8.146;2023-09-30T03:55:09;4.03;;;2.50;;
823;SDS011;373;49.342;8.146;2023-09-30T03:57:37;6.25;;;2.80;;
823;SDS011;373;49.342;8.146;2023-09-30T04:00:05;3.42;;;2.40;;
823;SDS011;373;49.342;8.146;2023-09-30T04:02:37;3.22;;;2.10;;
823;SDS011;373;49.342;8.146;2023-09-30T04:05:05;2.47;;;1.85;;
823;SDS011;373;49.342;8.146;2023-09-30T04:07:32;3.33;;;2.40;;
823;SDS011;373;49.342;8.146;2023-09-30T04:10:03;3.13;;;2.17;;
823;SDS011;373;49.342;8.146;2023-09-30T04:12:30;2.63;;;1.98;;
823;SDS011;373;49.342;8.146;2023-09-30T04:14:58;3.83;;;2.03;;
823;SDS011;373;49.342;8.146;2023-09-30T04:17:25;2.60;;;2.17;;
823;SDS011;373;49.342;8.146;2023-09-30T04:19:53;4.75;;;2.35;;
823;SDS011;373;49.342;8.146;2023-09-30T04:22:20;4.35;;;2.22;;
823;SDS011;373;49.342;8.146;2023-09-30T04:24:49;3.28;;;2.13;;
823;SDS011;373;49.342;8.146;2023-09-30T04:27:18;2.83;;;2.47;;
823;SDS011;373;49.342;8.146;2023-09-30T04:29:45;6.55;;;2.70;;
823;SDS011;373;49.342;8.146;2023-09-30T04:32:13;4.20;;;2.60;;
823;SDS011;373;49.342;8.146;2023-09-30T04:34:40;3.05;;;2.75;;
823;SDS011;373;49.342;8.146;2023-09-30T04:37:07;2.75;;;2.10;;
823;SDS011;373;49.342;8.146;2023-09-30T04:39:34;5.50;;;2.65;;
823;SDS011;373;49.342;8.146;2023-09-30T04:42:01;2.78;;;2.15;;
823;SDS011;373;49.342;8.146;2023-09-30T04:44:31;3.33;;;2.42;;
823;SDS011;373;49.342;8.146;2023-09-30T04:46:58;4.60;;;2.45;;
823;SDS011;373;49.342;8.146;2023-09-30T04:49:25;4.15;;;3.00;;
823;SDS011;373;49.342;8.146;2023-09-30T04:51:52;3.33;;;2.50;;
823;SDS011;373;49.342;8.146;2023-09-30T04:54:20;3.88;;;2.28;;
823;SDS011;373;49.342;8.146;2023-09-30T04:56:47;3.10;;;2.20;;
823;SDS011;373;49.342;8.146;2023-09-30T04:59:16;3.72;;;2.10;;
823;SDS011;373;49.342;8.146;2023-09-30T05:01:44;3.30;;;2.22;;
823;SDS011;373;49.342;8.146;2023-09-30T05:04:12;3.75;;;2.58;;
823;SDS011;373;49.342;8.146;2023-09-30T05:06:39;3.85;;;2.40;;
823;SDS011;373;49.342;8.146;2023-09-30T05:09:05;3.47;;;2.60;;
823;SDS011;373;49.342;8.146;2023-09-30T05:11:32;3.65;;;2.70;;
823;SDS011;373;49.342;8.146;2023-09-30T05:14:00;7.28;;;3.20;;
823;SDS011;373;49.342;8.146;2023-09-30T05:16:30;3.03;;;2.00;;
823;SDS011;373;49.342;8.146;2023-09-30T05:18:58;5.60;;;2.47;;
823;SDS011;373;49.342;8.146;2023-09-30T05:21:25;4.35;;;2.70;;
823;SDS011;373;49.342;8.146;2023-09-30T05:23:53;3.45;;;2.35;;
823;SDS011;373;49.342;8.146;2023-09-30T05:26:20;5.20;;;3.10;;
823;SDS011;373;49.342;8.146;2023-09-30T05:28:47;2.92;;;2.70;;
823;SDS011;373;49.342;8.146;2023-09-30T05:31:14;3.95;;;2.78;;
823;SDS011;373;49.342;8.146;2023-09-30T05:33:41;3.47;;;2.22;;
823;SDS011;373;49.342;8.146;2023-09-30T05:36:10;3.45;;;2.25;;
823;SDS011;373;49.342;8.146;2023-09-30T05:38:39;3.40;;;2.50;;
823;SDS011;373;49.342;8.146;2023-09-30T05:41:07;3.20;;;2.50;;
823;SDS011;373;49.342;8.146;2023-09-30T05:43:34;3.22;;;2.50;;
823;SDS011;373;49.342;8.146;2023-09-30T05:46:01;4.68;;;3.03;;
823;SDS011;373;49.342;8.146;2023-09-30T05:48:29;3.40;;;2.33;;
823;SDS011;373;49.342;8.146;2023-09-30T05:50:56;3.78;;;2.45;;
823;SDS011;373;49.342;8.146;2023-09-30T05:53:25;3.65;;;2.10;;
823;SDS011;373;49.342;8.146;2023-09-30T05:55:53;3.20;;;2.47;;
823;SDS011;373;49.342;8.146;2023-09-30T05:58:20;3.65;;;2.25;;
823;SDS011;373;49.342;8.146;2023-09-30T06:00:49;3.45;;;2.40;;
823;SDS011;373;49.342;8.146;2023-09-30T06:03:16;2.83;;;2.42;;
823;SDS011;373;49.342;8.146;2023-09-30T06:05:43;3.40;;;2.28;;
823;SDS011;373;49.342;8.146;2023-09-30T06:08:10;5.85;;;2.45;;
823;SDS011;373;49.342;8.146;2023-09-30T06:10:41;5.47;;;2.25;;
823;SDS011;373;49.342;8.146;2023-09-30T06:13:09;4.63;;;3.03;;
823;SDS011;373;49.342;8.146;2023-09-30T06:15:36;3.95;;;2.60;;
823;SDS011;373;49.342;8.146;2023-09-30T06:18:07;3.03;;;2.63;;
823;SDS011;373;49.342;8.146;2023-09-30T06:20:37;3.72;;;2.47;;
823;SDS011;373;49.342;8.146;2023-09-30T06:23:04;4.03;;;2.55;;
823;SDS011;373;49.342;8.146;2023-09-30T06:25:31;4.72;;;2.47;;
823;SDS011;373;49.342;8.146;2023-09-30T06:28:00;3.78;;;2.50;;
823;SDS011;373;49.342;8.146;2023-09-30T06:30:28;3.90;;;2.40;;
823;SDS011;373;49.342;8.146;2023-09-30T06:32:55;3.08;;;2.05;;
823;SDS011;373;49.342;8.146;2023-09-30T06:35:23;3.20;;;2.35;;
823;SDS011;373;49.342;8.146;2023-09-30T06:37:51;4.38;;;2.58;;
823;SDS011;373;49.342;8.146;2023-09-30T06:40:18;4.53;;;2.60;;
823;SDS011;373;49.342;8.146;2023-09-30T06:42:46;3.20;;;2.22;;
823;SDS011;373;49.342;8.146;2023-09-30T06:45:14;5.15;;;2.72;;
823;SDS011;373;49.342;8.146;2023-09-30T06:47:41;3.63;;;2.65;;
823;SDS011;373;49.342;8.146;2023-09-30T06:50:10;3.78;;;2.70;;
823;SDS011;373;49.342;8.146;2023-09-30T06:52:41;3.90;;;2.65;;
823;SDS011;373;49.342;8.146;2023-09-30T06:55:10;2.90;;;2.50;;
823;SDS011;373;49.342;8.146;2023-09-30T06:57:40;4.05;;;2.40;;
823;SDS011;373;49.342;8.146;2023-09-30T07:00:08;3.00;;;2.65;;
823;SDS011;373;49.342;8.146;2023-09-30T07:02:38;4.68;;;2.70;;
823;SDS011;373;49.342;8.146;2023-09-30T07:05:07;3.08;;;2.55;;
823;SDS011;373;49.342;8.146;2023-09-30T07:07:34;4.20;;;2.53;;
823;SDS011;373;49.342;8.146;2023-09-30T07:10:02;3.25;;;2.30;;
823;SDS011;373;49.342;8.146;2023-09-30T07:12:30;4.40;;;3.08;;
823;SDS011;373;49.342;8.146;2023-09-30T07:15:00;5.78;;;2.80;;
823;SDS011;373;49.342;8.146;2023-09-30T07:17:28;3.47;;;2.33;;
823;SDS011;373;49.342;8.146;2023-09-30T07:19:57;2.97;;;2.67;;
823;SDS011;373;49.342;8.146;2023-09-30T07:22:24;3.65;;;2.47;;
823;SDS011;373;49.342;8.146;2023-09-30T07:24:51;2.40;;;2.20;;
823;SDS011;373;49.342;8.146;2023-09-30T07:27:19;3.25;;;2.55;;
823;SDS011;373;49.342;8.146;2023-09-30T07:29:46;5.15;;;2.90;;
823;SDS011;373;49.342;8.146;2023-09-30T07:32:13;3.50;;;2.67;;
823;SDS011;373;49.342;8.146;2023-09-30T07:34:40;3.33;;;2.47;;
823;SDS011;373;49.342;8.146;2023-09-30T07:37:09;3.50;;;2.17;;
823;SDS011;373;49.342;8.146;2023-09-30T07:39:36;4.18;;;2.50;;
823;SDS011;373;49.342;8.146;2023-09-30T07:42:03;4.95;;;2.20;;
823;SDS011;373;49.342;8.146;2023-09-30T07:44:30;5.05;;;3.10;;
823;SDS011;373;49.342;8.146;2023-09-30T07:46:58;5.50;;;3.25;;
823;SDS011;373;49.342;8.146;2023-09-30T07:49:25;4.97;;;3.30;;
823;SDS011;373;49.342;8.146;2023-09-30T07:51:52;3.22;;;2.50;;
823;SDS011;373;49.342;8.146;2023-09-30T07:54:21;3.63;;;2.95;;
823;SDS011;373;49.342;8.146;2023-09-30T07:56:49;5.18;;;3.03;;
823;SDS011;373;49.342;8.146;2023-09-30T07:59:16;5.60;;;3.50;;
823;SDS011;373;49.342;8.146;2023-09-30T08:01:43;6.75;;;3.90;;
823;SDS011;373;49.342;8.146;2023-09-30T08:04:10;4.97;;;3.75;;
823;SDS011;373;49.342;8.146;2023-09-30T08:06:37;4.70;;;3.95;;
823;SDS011;373;49.342;8.146;2023-09-30T08:09:04;5.57;;;4.03;;
823;SDS011;373;49.342;8.146;2023-09-30T08:11:36;5.05;;;3.63;;
823;SDS011;373;49.342;8.146;2023-09-30T08:14:03;5.72;;;3.92;;
823;SDS011;373;49.342;8.146;2023-09-30T08:16:32;7.78;;;4.80;;
823;SDS011;373;49.342;8.146;2023-09-30T08:18:59;6.88;;;4.80;;
823;SDS011;373;49.342;8.146;2023-09-30T08:21:26;5.10;;;4.50;;
823;SDS011;373;49.342;8.146;2023-09-30T08:23:53;5.70;;;3.78;;
823;SDS011;373;49.342;8.146;2023-09-30T08:26:20;18.23;;;7.88;;
823;SDS011;373;49.342;8.146;2023-09-30T08:28:48;8.93;;;6.57;;
823;SDS011;373;49.342;8.146;2023-09-30T08:31:15;6.53;;;5.80;;
823;SDS011;373;49.342;8.146;2023-09-30T08:33:42;7.85;;;5.47;;
823;SDS011;373;49.342;8.146;2023-09-30T08:36:11;6.07;;;5.43;;
823;SDS011;373;49.342;8.146;2023-09-30T08:38:38;5.97;;;5.28;;
823;SDS011;373;49.342;8.146;2023-09-30T08:41:06;5.25;;;4.30;;
823;SDS011;373;49.342;8.146;2023-09-30T08:43:35;7.25;;;5.00;;
823;SDS011;373;49.342;8.146;2023-09-30T08:46:05;8.18;;;4.60;;
823;SDS011;373;49.342;8.146;2023-09-30T08:48:33;6.65;;;5.53;;
823;SDS011;373;49.342;8.146;2023-09-30T08:51:01;6.88;;;4.97;;
823;SDS011;373;49.342;8.146;2023-09-30T08:53:29;5.63;;;4.95;;
823;SDS011;373;49.342;8.146;2023-09-30T08:55:57;7.35;;;5.10;;
823;SDS011;373;49.342;8.146;2023-09-30T08:58:27;9.20;;;4.80;;
823;SDS011;373;49.342;8.146;2023-09-30T09:00:55;6.55;;;5.20;;
823;SDS011;373;49.342;8.146;2023-09-30T09:03:24;5.63;;;4.53;;
823;SDS011;373;49.342;8.146;2023-09-30T09:05:54;6.63;;;4.40;;
823;SDS011;373;49.342;8.146;2023-09-30T09:08:22;7.75;;;4.90;;
823;SDS011;373;49.342;8.146;2023-09-30T09:10:53;6.15;;;4.55;;
823;SDS011;373;49.342;8.146;2023-09-30T09:13:22;7.72;;;5.03;;
823;SDS011;373;49.342;8.146;2023-09-30T09:15:49;7.70;;;4.93;;
823;SDS011;373;49.342;8.146;2023-09-30T09:18:33;6.05;;;4.75;;
823;SDS011;373;49.342;8.146;2023-09-30T09:21:08;8.80;;;4.63;;
823;SDS011;373;49.342;8.146;2023-09-30T09:23:39;6.65;;;4.47;;
823;SDS011;373;49.342;8.146;2023-09-30T09:26:08;6.75;;;4.53;;
823;SDS011;373;49.342;8.146;2023-09-30T09:28:35;9.32;;;5.35;;
823;SDS011;373;49.342;8.146;2023-09-30T09:31:20;5.35;;;4.55;;
823;SDS011;373;49.342;8.146;2023-09-30T09:33:50;7.55;;;4.38;;
823;SDS011;373;49.342;8.146;2023-09-30T09:36:18;7.95;;;5.32;;
823;SDS011;373;49.342;8.146;2023-09-30T09:38:47;6.00;;;5.25;;
823;SDS011;373;49.342;8.146;2023-09-30T09:41:18;5.75;;;4.75;;
823;SDS011;373;49.342;8.146;2023-09-30T09:43:45;6.68;;;4.78;;
823;SDS011;373;49.342;8.146;2023-09-30T09:46:16;7.95;;;4.43;;
823;SDS011;373;49.342;8.146;2023-09-30T09:48:44;8.43;;;5.07;;
823;SDS011;373;49.342;8.146;2023-09-30T09:51:14;5.35;;;4.55;;
823;SDS011;373;49.342;8.146;2023-09-30T09:53:41;7.00;;;5.05;;
823;SDS011;373;49.342;8.146;2023-09-30T09:56:09;6.55;;;4.65;;
823;SDS011;373;49.342;8.146;2023-09-30T09:58:38;6.57;;;4.50;;
823;SDS011;373;49.342;8.146;2023-09-30T10:01:09;7.25;;;4.80;;
823;SDS011;373;49.342;8.146;2023-09-30T10:03:37;7.10;;;4.75;;
823;SDS011;373;49.342;8.146;2023-09-30T10:06:08;5.80;;;4.70;;
823;SDS011;373;49.342;8.146;2023-09-30T10:08:37;6.32;;;4.63;;
823;SDS011;373;49.342;8.146;2023-09-30T10:11:07;6.95;;;5.00;;
823;SDS011;373;49.342;8.146;2023-09-30T10:13:52;5.32;;;4.07;;
823;SDS011;373;49.342;8.146;2023-09-30T10:19:19;4.75;;;4.03;;
823;SDS011;373;49.342;8.146;2023-09-30T10:24:48;7.95;;;4.15;;
823;SDS011;373;49.342;8.146;2023-09-30T10:27:29;6.45;;;4.93;;
823;SDS011;373;49.342;8.146;2023-09-30T10:29:58;7.50;;;4.63;;
823;SDS011;373;49.342;8.146;2023-09-30T10:35:42;4.90;;;3.50;;
823;SDS011;373;49.342;8.146;2023-09-30T10:41:04;5.40;;;3.75;;
823;SDS011;373;49.342;8.146;2023-09-30T10:43:34;7.20;;;3.90;;
823;SDS011;373;49.342;8.146;2023-09-30T10:46:03;5.47;;;4.78;;
823;SDS011;373;49.342;8.146;2023-09-30T10:48:35;5.40;;;3.90;;
823;SDS011;373;49.342;8.146;2023-09-30T10:51:10;5.70;;;4.13;;
823;SDS011;373;49.342;8.146;2023-09-30T10:53:46;6.40;;;4.25;;
823;SDS011;373;49.342;8.146;2023-09-30T10:56:15;6.88;;;4.28;;
823;SDS011;373;49.342;8.146;2023-09-30T10:58:43;6.97;;;4.30;;
823;SDS011;373;49.342;8.146;2023-09-30T11:01:11;5.90;;;3.90;;
823;SDS011;373;49.342;8.146;2023-09-30T11:03:39;4.82;;;3.90;;
823;SDS011;373;49.342;8.146;2023-09-30T11:06:06;6.70;;;4.75;;
823;SDS011;373;49.342;8.146;2023-09-30T11:08:34;6.90;;;4.80;;
823;SDS011;373;49.342;8.146;2023-09-30T11:11:03;6.00;;;4.45;;
823;SDS011;373;49.342;8.146;2023-09-30T11:13:34;6.93;;;4.10;;
823;SDS011;373;49.342;8.146;2023-09-30T11:16:04;5.40;;;4.20;;
823;SDS011;373;49.342;8.146;2023-09-30T11:18:31;7.70;;;4.38;;
823;SDS011;373;49.342;8.146;2023-09-30T11:21:08;6.00;;;4.50;;
823;SDS011;373;49.342;8.146;2023-09-30T11:23:38;6.32;;;4.53;;
823;SDS011;373;49.342;8.146;2023-09-30T11:26:07;5.45;;;3.85;;
823;SDS011;373;49.342;8.146;2023-09-30T11:28:36;5.90;;;4.07;;
823;SDS011;373;49.342;8.146;2023-09-30T11:31:07;6.85;;;5.25;;
823;SDS011;373;49.342;8.146;2023-09-30T11:33:52;7.32;;;4.60;;
823;SDS011;373;49.342;8.146;2023-09-30T11:36:22;7.40;;;4.95;;
823;SDS011;373;49.342;8.146;2023-09-30T11:38:50;4.80;;;4.18;;
823;SDS011;373;49.342;8.146;2023-09-30T11:41:19;4.30;;;3.83;;
823;SDS011;373;49.342;8.146;2023-09-30T11:44:01;6.97;;;4.45;;
823;SDS011;373;49.342;8.146;2023-09-30T11:46:46;6.57;;;4.18;;
823;SDS011;373;49.342;8.146;2023-09-30T11:49:29;6.57;;;4.60;;
823;SDS011;373;49.342;8.146;2023-09-30T11:51:57;4.72;;;4.07;;
823;SDS011;373;49.342;8.146;2023-09-30T11:54:29;7.07;;;4.65;;
823;SDS011;373;49.342;8.146;2023-09-30T11:56:58;5.28;;;4.45;;
823;SDS011;373;49.342;8.146;2023-09-30T11:59:27;8.63;;;5.28;;
823;SDS011;373;49.342;8.146;2023-09-30T12:01:54;5.55;;;4.35;;
823;SDS011;373;49.342;8.146;2023-09-30T12:04:21;6.60;;;4.20;;
823;SDS011;373;49.342;8.146;2023-09-30T12:06:49;6.95;;;4.22;;
823;SDS011;373;49.342;8.146;2023-09-30T12:09:16;7.72;;;4.90;;
823;SDS011;373;49.342;8.146;2023-09-30T12:11:47;7.85;;;5.18;;
823;SDS011;373;49.342;8.146;2023-09-30T12:14:15;5.95;;;4.75;;
823;SDS011;373;49.342;8.146;2023-09-30T12:16:43;9.15;;;5.47;;
823;SDS011;373;49.342;8.146;2023-09-30T12:19:12;6.60;;;4.75;;
823;SDS011;373;49.342;8.146;2023-09-30T12:21:40;8.05;;;4.47;;
823;SDS011;373;49.342;8.146;2023-09-30T12:24:08;5.75;;;4.10;;
823;SDS011;373;49.342;8.146;2023-09-30T12:26:36;7.55;;;4.70;;
823;SDS011;373;49.342;8.146;2023-09-30T12:29:05;7.82;;;4.68;;
823;SDS011;373;49.342;8.146;2023-09-30T12:31:34;6.85;;;4.55;;
823;SDS011;373;49.342;8.146;2023-09-30T12:34:02;5.80;;;4.03;;
823;SDS011;373;49.342;8.146;2023-09-30T12:36:30;6.10;;;4.88;;
823;SDS011;373;49.342;8.146;2023-09-30T12:38:58;8.25;;;4.97;;
823;SDS011;373;49.342;8.146;2023-09-30T12:41:25;8.65;;;4.60;;
823;SDS011;373;49.342;8.146;2023-09-30T12:43:52;6.05;;;4.15;;
823;SDS011;373;49.342;8.146;2023-09-30T12:46:19;6.07;;;4.30;;
823;SDS011;373;49.342;8.146;2023-09-30T12:48:46;6.78;;;4.28;;
823;SDS011;373;49.342;8.146;2023-09-30T12:51:15;5.35;;;3.88;;
823;SDS011;373;49.342;8.146;2023-09-30T12:53:42;5.47;;;4.28;;
823;SDS011;373;49.342;8.146;2023-09-30T12:56:10;6.75;;;4.75;;
823;SDS011;373;49.342;8.146;2023-09-30T12:58:37;6.10;;;4.28;;
823;SDS011;373;49.342;8.146;2023-09-30T13:01:04;5.63;;;4.60;;
823;SDS011;373;49.342;8.146;2023-09-30T13:03:33;7.38;;;4.25;;
823;SDS011;373;49.342;8.146;2023-09-30T13:06:00;5.65;;;4.50;;
823;SDS011;373;49.342;8.146;2023-09-30T13:08:30;4.50;;;3.78;;
823;SDS011;373;49.342;8.146;2023-09-30T13:10:59;5.47;;;4.38;;
823;SDS011;373;49.342;8.146;2023-09-30T13:13:27;5.15;;;4.45;;
823;SDS011;373;49.342;8.146;2023-09-30T13:15:56;6.43;;;4.10;;
823;SDS011;373;49.342;8.146;2023-09-30T13:18:23;5.90;;;4.38;;
823;SDS011;373;49.342;8.146;2023-09-30T13:20:50;7.20;;;4.55;;
823;SDS011;373;49.342;8.146;2023-09-30T13:23:17;6.72;;;4.22;;
823;SDS011;373;49.342;8.146;2023-09-30T13:25:46;6.72;;;4.63;;
823;SDS011;373;49.342;8.146;2023-09-30T13:28:13;5.78;;;4.35;;
823;SDS011;373;49.342;8.146;2023-09-30T13:30:40;5.35;;;4.22;;
823;SDS011;373;49.342;8.146;2023-09-30T13:33:07;6.25;;;4.07;;
823;SDS011;373;49.342;8.146;2023-09-30T13:35:34;6.07;;;4.40;;
823;SDS011;373;49.342;8.146;2023-09-30T13:38:02;7.05;;;4.38;;
823;SDS011;373;49.342;8.146;2023-09-30T13:40:30;6.15;;;4.72;;
823;SDS011;373;49.342;8.146;2023-09-30T13:42:58;6.45;;;4.38;;
823;SDS011;373;49.342;8.146;2023-09-30T13:45:25;6.53;;;4.78;;
823;SDS011;373;49.342;8.146;2023-09-30T13:47:53;6.30;;;4.85;;
823;SDS011;373;49.342;8.146;2023-09-30T13:50:21;6.20;;;4.30;;
823;SDS011;373;49.342;8.146;2023-09-30T13:52:48;6.53;;;4.57;;
823;SDS011;373;49.342;8.146;2023-09-30T13:55:15;7.68;;;4.80;;
823;SDS011;373;49.342;8.146;2023-09-30T13:57:44;5.85;;;4.43;;
823;SDS011;373;49.342;8.146;2023-09-30T14:00:14;4.50;;;4.00;;
823;SDS011;373;49.342;8.146;2023-09-30T14:02:49;6.28;;;4.90;;
823;SDS011;373;49.342;8.146;2023-09-30T14:05:17;6.55;;;4.57;;
823;SDS011;373;49.342;8.146;2023-09-30T14:07:48;7.25;;;4.78;;
823;SDS011;373;49.342;8.146;2023-09-30T14:10:19;7.18;;;4.65;;
823;SDS011;373;49.342;8.146;2023-09-30T14:12:47;6.95;;;4.35;;
823;SDS011;373;49.342;8.146;2023-09-30T14:15:15;7.10;;;4.78;;
823;SDS011;373;49.342;8.146;2023-09-30T14:17:44;7.22;;;4.50;;
823;SDS011;373;49.342;8.146;2023-09-30T14:20:18;5.82;;;4.38;;
823;SDS011;373;49.342;8.146;2023-09-30T14:23:02;6.03;;;4.75;;
823;SDS011;373;49.342;8.146;2023-09-30T15:24:46;7.93;;;5.13;;
823;SDS011;373;49.342;8.146;2023-09-30T15:27:14;7.18;;;4.70;;
823;SDS011;373;49.342;8.146;2023-09-30T15:29:43;6.80;;;5.35;;
823;SDS011;373;49.342;8.146;2023-09-30T15:32:11;7.53;;;5.50;;
823;SDS011;373;49.342;8.146;2023-09-30T15:34:38;8.27;;;5.65;;
823;SDS011;373;49.342;8.146;2023-09-30T15:37:07;6.45;;;5.05;;
823;SDS011;373;49.342;8.146;2023-09-30T15:39:36;6.43;;;4.88;;
823;SDS011;373;49.342;8.146;2023-09-30T15:42:05;6.90;;;4.88;;
823;SDS011;373;49.342;8.146;2023-09-30T15:44:37;7.13;;;5.10;;
823;SDS011;373;49.342;8.146;2023-09-30T15:47:04;6.28;;;4.68;;
823;SDS011;373;49.342;8.146;2023-09-30T15:49:33;6.78;;;4.55;;
823;SDS011;373;49.342;8.146;2023-09-30T15:52:00;6.53;;;4.85;;
823;SDS011;373;49.342;8.146;2023-09-30T15:54:27;6.72;;;5.10;;
823;SDS011;373;49.342;8.146;2023-09-30T15:56:54;5.93;;;4.75;;
823;SDS011;373;49.342;8.146;2023-09-30T15:59:25;5.90;;;4.80;;
823;SDS011;373;49.342;8.146;2023-09-30T16:01:52;7.65;;;5.65;;
823;SDS011;373;49.342;8.146;2023-09-30T16:04:19;7.15;;;4.63;;
823;SDS011;373;49.342;8.146;2023-09-30T16:06:46;8.50;;;5.00;;
823;SDS011;373;49.342;8.146;2023-09-30T16:09:13;6.35;;;4.50;;
823;SDS011;373;49.342;8.146;2023-09-30T16:11:41;7.88;;;5.22;;
823;SDS011;373;49.342;8.146;2023-09-30T16:14:09;7.15;;;5.22;;
823;SDS011;373;49.342;8.146;2023-09-30T16:16:37;6.82;;;4.93;;
823;SDS011;373;49.342;8.146;2023-09-30T16:19:04;5.45;;;4.68;;
823;SDS011;373;49.342;8.146;2023-09-30T16:21:31;7.10;;;4.43;;
823;SDS011;373;49.342;8.146;2023-09-30T16:23:58;8.82;;;5.03;;
823;SDS011;373;49.342;8.146;2023-09-30T16:26:25;5.90;;;4.70;;
823;SDS011;373;49.342;8.146;2023-09-30T16:28:52;7.22;;;4.38;;
823;SDS011;373;49.342;8.146;2023-09-30T16:31:19;5.30;;;4.25;;
823;SDS011;373;49.342;8.146;2023-09-30T16:33:47;7.70;;;4.88;;
823;SDS011;373;49.342;8.146;2023-09-30T16:36:15;6.43;;;4.25;;
823;SDS011;373;49.342;8.146;2023-09-30T16:38:42;5.50;;;4.60;;
823;SDS011;373;49.342;8.146;2023-09-30T16:41:09;8.70;;;5.45;;
823;SDS011;373;49.342;8.146;2023-09-30T16:43:36;6.93;;;4.82;;
823;SDS011;373;49.342;8.146;2023-09-30T16:46:04;6.75;;;5.15;;
823;SDS011;373;49.342;8.146;2023-09-30T16:48:31;6.13;;;4.20;;
823;SDS011;373;49.342;8.146;2023-09-30T16:51:00;8.05;;;4.90;;
823;SDS011;373;49.342;8.146;2023-09-30T16:53:28;5.15;;;4.65;;
823;SDS011;373;49.342;8.146;2023-09-30T16:55:55;7.05;;;5.20;;
823;SDS011;373;49.342;8.146;2023-09-30T16:58:28;8.82;;;5.30;;
823;SDS011;373;49.342;8.146;2023-09-30T17:00:55;8.95;;;5.30;;
823;SDS011;373;49.342;8.146;2023-09-30T17:03:22;6.63;;;4.82;;
823;SDS011;373;49.342;8.146;2023-09-30T17:05:51;5.43;;;4.80;;
823;SDS011;373;49.342;8.146;2023-09-30T17:08:19;7.75;;;4.95;;
823;SDS011;373;49.342;8.146;2023-09-30T17:10:47;7.15;;;4.97;;
823;SDS011;373;49.342;8.146;2023-09-30T17:13:15;7.07;;;5.10;;
823;SDS011;373;49.342;8.146;2023-09-30T17:15:46;8.38;;;5.13;;
823;SDS011;373;49.342;8.146;2023-09-30T17:18:13;5.50;;;4.45;;
823;SDS011;373;49.342;8.146;2023-09-30T17:20:41;7.55;;;5.35;;
823;SDS011;373;49.342;8.146;2023-09-30T17:23:10;6.10;;;4.80;;
823;SDS011;373;49.342;8.146;2023-09-30T17:25:39;8.13;;;5.43;;
823;SDS011;373;49.342;8.146;2023-09-30T17:28:07;8.13;;;4.93;;
823;SDS011;373;49.342;8.146;2023-09-30T17:30:34;8.43;;;5.35;;
823;SDS011;373;49.342;8.146;2023-09-30T17:33:03;8.02;;;4.85;;
823;SDS011;373;49.342;8.146;2023-09-30T17:35:30;7.85;;;5.35;;
823;SDS011;373;49.342;8.146;2023-09-30T17:38:02;7.15;;;5.22;;
823;SDS011;373;49.342;8.146;2023-09-30T17:40:30;6.70;;;5.05;;
823;SDS011;373;49.342;8.146;2023-09-30T17:42:58;6.00;;;4.82;;
823;SDS011;373;49.342;8.146;2023-09-30T17:45:25;11.52;;;5.13;;
823;SDS011;373;49.342;8.146;2023-09-30T17:47:52;6.50;;;5.25;;
823;SDS011;373;49.342;8.146;2023-09-30T17:50:20;6.72;;;5.10;;
823;SDS011;373;49.342;8.146;2023-09-30T17:52:47;7.05;;;4.75;;
823;SDS011;373;49.342;8.146;2023-09-30T17:55:14;8.63;;;5.40;;
823;SDS011;373;49.342;8.146;2023-09-30T17:57:41;5.60;;;5.00;;
823;SDS011;373;49.342;8.146;2023-09-30T18:00:10;8.40;;;5.55;;
823;SDS011;373;49.342;8.146;2023-09-30T18:02:38;6.93;;;5.40;;
823;SDS011;373;49.342;8.146;2023-09-30T18:05:06;5.90;;;4.82;;
823;SDS011;373;49.342;8.146;2023-09-30T18:07:34;5.20;;;4.53;;
823;SDS011;373;49.342;8.146;2023-09-30T18:10:01;7.32;;;5.07;;
823;SDS011;373;49.342;8.146;2023-09-30T18:12:30;6.07;;;5.05;;
823;SDS011;373;49.342;8.146;2023-09-30T18:14:57;6.25;;;4.43;;
823;SDS011;373;49.342;8.146;2023-09-30T18:17:26;6.80;;;5.30;;
823;SDS011;373;49.342;8.146;2023-09-30T18:19:53;9.70;;;7.95;;
823;SDS011;373;49.342;8.146;2023-09-30T18:22:20;9.32;;;6.43;;
823;SDS011;373;49.342;8.146;2023-09-30T18:24:47;8.25;;;5.90;;
823;SDS011;373;49.342;8.146;2023-09-30T18:27:14;11.40;;;6.22;;
823;SDS011;373;49.342;8.146;2023-09-30T18:29:42;7.15;;;5.47;;
823;SDS011;373;49.342;8.146;2023-09-30T18:32:09;6.78;;;5.00;;
823;SDS011;373;49.342;8.146;2023-09-30T18:34:38;7.60;;;5.03;;
823;SDS011;373;49.342;8.146;2023-09-30T18:37:05;5.35;;;4.72;;
823;SDS011;373;49.342;8.146;2023-09-30T18:39:32;7.90;;;4.72;;
823;SDS011;373;49.342;8.146;2023-09-30T18:41:59;6.95;;;4.85;;
823;SDS011;373;49.342;8.146;2023-09-30T18:44:26;5.95;;;4.40;;
823;SDS011;373;49.342;8.146;2023-09-30T18:46:53;7.45;;;5.13;;
823;SDS011;373;49.342;8.146;2023-09-30T18:49:23;5.80;;;4.50;;
823;SDS011;373;49.342;8.146;2023-09-30T18:51:53;6.32;;;4.85;;
823;SDS011;373;49.342;8.146;2023-09-30T18:54:20;8.50;;;5.35;;